Time;durP1;ratioP1;P1;durP2;ratioP2;P2;SDS_P1;SDS_P2;PMS_P1;PMS_P2;Temp;Humidity;BMP_temperature;BMP_pressure;BME280_temperature;BME280_humidity;BME280_pressure;Samples;Min_cycle;Max_cycle;Signal;HPM_P1;HPM_P2
2022/01/20 00:01:55;;;;;;;12.00;3.90;;;;;;;10.05;54.04;101970.75;5089114;28;20056;-75
2022/01/20 00:04:50;;;;;;;8.55;3.65;;;;;;;10.04;53.63;101967.19;5070338;28;20052;-75
2022/01/20 00:20:39;;;;;;;9.82;3.03;;;;;;;10.00;53.90;101953.81;5088677;28;20196;-77
2022/01/20 00:25:53;;;;;;;8.80;2.90;;;;;;;9.90;53.80;101967.81;5076532;28;20091;-77
2022/01/20 00:26:29;;;;;;;13.63;3.45;;;;;;;9.89;53.66;101965.16;5081809;28;20105;-77
2022/01/20 00:28:59;;;;;;;10.80;2.53;;;;;;;9.89;53.60;101966.06;5087001;28;20053;-77
2022/01/20 00:39:50;;;;;;;9.98;2.50;;;;;;;9.82;53.87;101978.13;5024234;28;20139;-77
2022/01/20 00:42:17;;;;;;;8.48;2.60;;;;;;;9.84;53.95;101983.50;5025738;28;20088;-77
2022/01/20 00:44:45;;;;;;;8.07;2.30;;;;;;;9.84;53.89;101975.38;5007579;28;20045;-77
2022/01/20 00:47:14;;;;;;;9.80;2.67;;;;;;;9.83;53.75;101965.47;5025422;28;20520;-77
2022/01/20 00:49:42;;;;;;;10.13;3.13;;;;;;;9.81;53.55;101981.81;5027622;28;20045;-77
2022/01/20 00:52:09;;;;;;;11.35;3.25;;;;;;;9.78;53.54;101981.06;5030117;28;20096;-77
2022/01/20 00:54:36;;;;;;;11.10;2.83;;;;;;;9.77;53.58;101984.75;5016364;28;20085;-77
2022/01/20 00:57:04;;;;;;;11.45;2.70;;;;;;;9.76;53.36;101973.00;5029113;28;20045;-77
2022/01/20 00:59:31;;;;;;;10.57;2.60;;;;;;;9.74;53.81;101985.75;5027548;28;20045;-77
2022/01/20 01:02:00;;;;;;;10.68;2.78;;;;;;;9.74;53.63;101987.56;5029827;28;20104;-77
2022/01/20 01:04:27;;;;;;;9.57;2.42;;;;;;;9.72;53.65;101984.94;5028485;28;20161;-77
2022/01/20 01:07:19;;;;;;;9.82;3.35;;;;;;;9.72;53.69;101984.94;5012260;28;20045;-77
2022/01/20 01:09:47;;;;;;;9.73;2.33;;;;;;;9.69;53.65;101984.22;5029262;28;20061;-77
2022/01/20 01:12:19;;;;;;;8.50;2.45;;;;;;;9.68;53.54;101986.03;5088086;28;20557;-77
2022/01/20 01:14:50;;;;;;;9.90;2.67;;;;;;;9.66;53.63;101993.34;5089360;28;20284;-77
2022/01/20 01:22:30;;;;;;;9.23;2.97;;;;;;;9.65;53.87;101979.84;5089606;28;20056;-77
2022/01/20 01:24:58;;;;;;;11.70;3.05;;;;;;;9.66;53.59;101989.75;5068529;28;20403;-77
2022/01/20 01:27:26;;;;;;;10.38;2.50;;;;;;;9.65;53.51;101988.88;5092228;28;20109;-77
2022/01/20 01:32:34;;;;;;;9.95;2.45;;;;;;;9.63;53.60;101992.63;5090404;28;20073;-77
2022/01/20 01:35:04;;;;;;;8.65;2.70;;;;;;;9.60;53.76;101993.63;5080651;28;20056;-77
2022/01/20 01:39:59;;;;;;;8.30;2.53;;;;;;;9.60;53.53;101985.50;5090913;28;20059;-77
2022/01/20 01:42:45;;;;;;;8.68;2.70;;;;;;;9.59;53.62;101981.03;5089325;28;20055;-77
2022/01/20 01:45:26;;;;;;;14.75;3.03;;;;;;;9.59;53.55;101997.28;5084249;28;20233;-77
2022/01/20 01:47:54;;;;;;;9.32;2.63;;;;;;;9.55;53.61;102001.94;5083477;28;20040;-77
2022/01/20 01:50:22;;;;;;;7.30;2.42;;;;;;;9.55;53.65;101996.53;5072534;28;20044;-77
2022/01/20 01:52:49;;;;;;;10.27;2.40;;;;;;;9.53;53.66;101992.16;5073808;28;20040;-77
2022/01/20 01:55:16;;;;;;;8.55;2.33;;;;;;;9.54;53.67;101989.38;5089807;28;20060;-77
2022/01/20 01:57:43;;;;;;;11.35;2.72;;;;;;;9.52;53.54;101993.97;5072416;28;20048;-77
2022/01/20 02:00:11;;;;;;;9.15;2.42;;;;;;;9.52;53.60;101993.97;5089695;28;20071;-77
2022/01/20 02:02:39;;;;;;;6.20;2.60;;;;;;;9.50;53.68;101995.88;5087912;28;20048;-77
2022/01/20 02:05:07;;;;;;;8.57;2.10;;;;;;;9.50;53.92;101984.13;5082491;28;20424;-77
2022/01/20 02:20:52;;;;;;;9.45;2.00;;;;;;;9.51;53.56;101988.63;5089234;28;20112;-77
2022/01/20 02:23:19;;;;;;;8.75;2.55;;;;;;;9.50;53.57;101976.88;5071005;28;20411;-77
2022/01/20 02:25:46;;;;;;;10.02;2.20;;;;;;;9.48;53.58;101977.91;5087497;28;20059;-77
2022/01/20 02:28:13;;;;;;;10.57;2.70;;;;;;;9.49;53.67;101990.50;5093235;28;20094;-76
2022/01/20 02:30:42;;;;;;;7.55;1.90;;;;;;;9.50;53.55;101992.28;5071408;28;20067;-76
2022/01/20 02:33:19;;;;;;;10.82;2.30;;;;;;;9.51;53.55;101994.91;5085849;28;20491;-76
2022/01/20 02:35:50;;;;;;;11.60;2.58;;;;;;;9.50;53.90;101990.44;5065241;28;20056;-75
2022/01/20 02:38:27;;;;;;;12.52;2.60;;;;;;;9.48;53.77;101984.19;5090138;28;20079;-76
2022/01/20 02:46:25;;;;;;;7.80;1.95;;;;;;;9.49;53.62;101982.38;5084007;28;20063;-76
2022/01/20 02:48:52;;;;;;;8.00;2.38;;;;;;;9.48;53.57;101970.66;5072858;28;20550;-75
2022/01/20 02:51:19;;;;;;;7.68;2.10;;;;;;;9.48;53.61;101973.34;5090016;28;20059;-75
2022/01/20 02:53:46;;;;;;;8.40;2.03;;;;;;;9.47;53.49;101976.16;5090372;28;20080;-76
2022/01/20 02:56:12;;;;;;;7.93;2.00;;;;;;;9.45;53.50;101984.34;5088307;28;20056;-76
2022/01/20 02:58:42;;;;;;;5.18;1.80;;;;;;;9.46;53.28;101979.81;5090347;28;20094;-75
2022/01/20 03:01:09;;;;;;;9.35;2.00;;;;;;;9.44;53.38;101982.59;5077066;28;20434;-76
2022/01/20 03:03:36;;;;;;;6.78;1.95;;;;;;;9.42;53.26;101970.94;5062251;28;20040;-76
2022/01/20 03:06:04;;;;;;;8.63;2.50;;;;;;;9.43;53.31;101971.81;5085495;28;20197;-76
2022/01/20 03:08:30;;;;;;;7.38;2.13;;;;;;;9.42;53.46;101967.34;5083398;28;20072;-76
2022/01/20 03:10:57;;;;;;;6.07;2.08;;;;;;;9.41;53.26;101965.56;5088044;28;20503;-76
2022/01/20 03:13:24;;;;;;;7.50;2.15;;;;;;;9.39;53.50;101973.75;5090148;28;20078;-76
2022/01/20 03:15:52;;;;;;;9.98;2.35;;;;;;;9.40;53.48;101978.25;5081606;28;20060;-76
2022/01/20 03:18:19;;;;;;;8.85;2.20;;;;;;;9.40;53.56;101982.78;5089911;28;20048;-76
2022/01/20 03:20:45;;;;;;;8.30;1.92;;;;;;;9.38;53.43;101982.88;5084095;28;20075;-76
2022/01/20 03:23:12;;;;;;;10.65;2.15;;;;;;;9.40;53.49;101990.91;5090334;28;20080;-76
2022/01/20 03:25:38;;;;;;;5.40;2.15;;;;;;;9.41;53.46;101976.41;5090914;28;20083;-76
2022/01/20 03:28:05;;;;;;;7.25;1.58;;;;;;;9.41;53.41;101976.41;5089283;28;20047;-76
2022/01/20 03:30:34;;;;;;;7.38;1.98;;;;;;;9.39;53.31;101971.06;5084343;28;20105;-76
2022/01/20 03:33:01;;;;;;;5.85;1.85;;;;;;;9.40;53.35;101966.50;5089933;28;20411;-76
2022/01/20 03:35:28;;;;;;;6.80;1.55;;;;;;;9.40;53.35;101977.34;5068953;28;20142;-76
2022/01/20 03:37:55;;;;;;;5.38;1.67;;;;;;;9.40;53.40;101974.66;5089730;28;20079;-76
2022/01/20 03:40:23;;;;;;;7.15;1.50;;;;;;;9.38;53.43;101974.75;5088233;28;20096;-76
2022/01/20 03:42:50;;;;;;;8.50;1.55;;;;;;;9.40;53.42;101977.34;5089904;28;20075;-76
2022/01/20 03:45:17;;;;;;;6.05;1.65;;;;;;;9.38;53.26;101972.03;5086087;28;20495;-76
2022/01/20 03:47:44;;;;;;;6.00;1.73;;;;;;;9.38;53.18;101972.03;5090179;28;20082;-76
2022/01/20 03:50:59;;;;;;;6.97;2.03;;;;;;;9.38;53.21;101966.59;5081963;28;20475;-75
2022/01/20 03:52:59;;;;;;;5.88;1.70;;;;;;;9.38;53.43;101961.19;5088485;28;20052;-76
2022/01/20 03:55:26;;;;;;;6.53;1.63;;;;;;;9.38;53.41;101961.19;5087548;28;20051;-76
2022/01/20 03:57:52;;;;;;;8.82;1.63;;;;;;;9.38;53.34;101952.16;5089158;28;20052;-76
2022/01/20 04:00:19;;;;;;;5.97;1.58;;;;;;;9.37;53.49;101950.41;5087840;28;20131;-76
2022/01/20 04:02:46;;;;;;;6.22;1.75;;;;;;;9.37;53.52;101948.56;5087374;28;20052;-76
2022/01/20 04:05:13;;;;;;;6.70;1.52;;;;;;;9.37;53.38;101948.56;5078551;28;20056;-76
2022/01/20 04:07:39;;;;;;;6.80;1.65;;;;;;;9.36;53.42;101960.38;5083605;28;20055;-76
2022/01/20 04:10:06;;;;;;;5.50;1.60;;;;;;;9.37;53.51;101959.41;5068145;28;20169;-76
2022/01/20 04:12:33;;;;;;;8.32;2.00;;;;;;;9.36;53.57;101971.22;5089717;28;20102;-76
2022/01/20 04:15:06;;;;;;;7.03;1.63;;;;;;;9.36;53.31;101964.91;5086271;28;20135;-76
2022/01/20 04:17:35;;;;;;;6.10;1.50;;;;;;;9.35;53.20;101965.84;5088209;28;20485;-76
2022/01/20 04:20:04;;;;;;;7.35;2.00;;;;;;;9.36;53.09;101971.22;5088737;28;20062;-76
2022/01/20 04:22:30;;;;;;;5.90;1.27;;;;;;;9.34;53.00;101959.53;5089004;28;20097;-76
2022/01/20 04:24:57;;;;;;;4.80;1.40;;;;;;;9.34;53.38;101958.66;5086915;28;20052;-76
2022/01/20 04:27:24;;;;;;;6.25;1.52;;;;;;;9.32;53.24;101953.31;5085079;28;20052;-76
2022/01/20 04:29:50;;;;;;;5.43;1.50;;;;;;;9.31;53.42;101950.66;5091368;28;20085;-76
2022/01/20 04:32:17;;;;;;;4.78;1.30;;;;;;;9.30;53.24;101947.09;5081841;28;20071;-76
2022/01/20 04:34:44;;;;;;;4.57;1.27;;;;;;;9.30;53.17;101957.06;5087762;28;20514;-76
2022/01/20 04:37:12;;;;;;;3.92;1.50;;;;;;;9.30;53.16;101951.63;5083738;28;20211;-76
2022/01/20 04:39:45;;;;;;;4.88;1.10;;;;;;;9.28;53.22;101946.28;5076014;28;20052;-76
2022/01/20 04:42:12;;;;;;;4.38;1.15;;;;;;;9.29;53.24;101955.28;5065396;28;20514;-76
2022/01/20 04:58:05;;;;;;;6.20;1.50;;;;;;;9.24;53.28;101969.03;5087341;28;20090;-76
2022/01/20 05:00:32;;;;;;;6.75;1.50;;;;;;;9.25;53.18;101972.59;5086687;28;20102;-77
2022/01/20 05:02:59;;;;;;;7.22;1.55;;;;;;;9.24;53.21;101969.03;5061431;28;20653;-77
2022/01/20 05:05:31;;;;;;;6.07;1.38;;;;;;;9.24;53.15;101965.44;5068577;28;20075;-77
2022/01/20 05:08:01;;;;;;;4.85;1.65;;;;;;;9.23;53.17;101980.81;5088110;28;20052;-77
2022/01/20 05:10:30;;;;;;;8.10;1.60;;;;;;;9.24;53.29;101976.25;5071099;28;20131;-76
2022/01/20 05:15:25;;;;;;;6.95;1.80;;;;;;;9.23;53.48;101960.94;5085815;28;20082;-77
2022/01/20 05:17:53;;;;;;;5.53;1.83;;;;;;;9.23;53.63;101967.25;5069589;28;20128;-76
2022/01/20 05:20:20;;;;;;;5.50;1.70;;;;;;;9.22;53.45;101962.81;5067370;28;20109;-77
2022/01/20 05:22:46;;;;;;;8.40;2.08;;;;;;;9.23;53.30;101969.06;5084072;28;20082;-76
2022/01/20 05:25:13;;;;;;;5.78;1.52;;;;;;;9.22;53.34;101979.06;5086284;28;20051;-77
2022/01/20 05:27:39;;;;;;;4.47;1.60;;;;;;;9.23;53.32;101988.03;5085031;28;20136;-76
2022/01/20 05:30:07;;;;;;;4.85;1.45;;;;;;;9.23;53.77;101988.94;5077257;28;20087;-76
2022/01/20 05:32:33;;;;;;;5.40;1.50;;;;;;;9.23;53.50;102002.47;5084092;28;20056;-76
2022/01/20 05:35:00;;;;;;;5.50;1.48;;;;;;;9.23;53.32;101988.94;5078038;28;20105;-76
2022/01/20 05:37:27;;;;;;;5.60;1.90;;;;;;;9.25;53.65;101994.28;5086227;28;20562;-76
2022/01/20 05:39:54;;;;;;;5.95;1.40;;;;;;;9.25;53.31;102000.59;5086266;28;20044;-76
2022/01/20 05:42:20;;;;;;;8.88;1.65;;;;;;;9.25;53.47;101995.16;5087976;28;20048;-76
2022/01/20 05:44:50;;;;;;;4.55;1.50;;;;;;;9.28;53.53;101996.88;5063500;28;20453;-76
2022/01/20 05:47:25;;;;;;;7.70;1.60;;;;;;;9.28;53.67;101995.06;5073148;28;20450;-76
2022/01/20 05:49:52;;;;;;;6.35;1.65;;;;;;;9.28;53.45;102008.59;5089563;28;20064;-76
2022/01/20 05:52:19;;;;;;;6.15;1.60;;;;;;;9.29;53.42;102018.50;5089865;28;20051;-77
2022/01/20 05:54:48;;;;;;;6.03;1.60;;;;;;;9.31;53.20;102029.25;5083634;28;20083;-77
2022/01/20 05:57:15;;;;;;;6.18;1.42;;;;;;;9.31;53.31;102030.13;5072589;28;20048;-77
2022/01/20 05:59:42;;;;;;;5.43;1.48;;;;;;;9.31;53.27;102051.81;5090237;28;20055;-77
2022/01/20 06:02:28;;;;;;;4.75;1.50;;;;;;;9.31;53.11;102054.53;5087444;28;20040;-77
2022/01/20 06:04:55;;;;;;;5.63;1.55;;;;;;;9.29;53.13;102052.84;5088722;28;20291;-78
2022/01/20 06:07:21;;;;;;;5.40;1.75;;;;;;;9.28;53.15;102041.13;5086581;28;20076;-77
2022/01/20 06:09:48;;;;;;;5.53;1.45;;;;;;;9.28;53.11;102042.94;5089467;28;20088;-77
2022/01/20 06:12:14;;;;;;;9.65;1.70;;;;;;;9.25;53.01;102035.81;5073158;28;20097;-77
2022/01/20 06:14:41;;;;;;;4.68;1.30;;;;;;;9.24;52.77;102038.59;5070785;28;20085;-77
2022/01/20 06:17:08;;;;;;;4.07;1.40;;;;;;;9.22;52.90;102040.50;5086334;28;20083;-76
2022/01/20 06:19:35;;;;;;;4.38;1.33;;;;;;;9.20;53.12;102042.38;5090938;28;20052;-76
2022/01/20 06:22:02;;;;;;;6.13;1.40;;;;;;;9.21;53.12;102044.16;5089687;28;20056;-77
2022/01/20 06:24:28;;;;;;;4.72;1.25;;;;;;;9.18;52.88;102039.75;5086775;28;20099;-76
2022/01/20 06:26:56;;;;;;;4.38;1.50;;;;;;;9.15;52.89;102040.75;5094049;28;20573;-76
2022/01/20 06:29:23;;;;;;;5.03;1.75;;;;;;;9.15;53.15;102056.09;5087512;28;20052;-77
2022/01/20 06:31:50;;;;;;;5.97;1.50;;;;;;;9.15;52.72;102054.28;5072838;28;20047;-76
2022/01/20 06:34:16;;;;;;;4.95;1.40;;;;;;;9.14;52.95;102071.47;5080117;28;20075;-76
2022/01/20 06:36:43;;;;;;;5.38;1.27;;;;;;;9.13;53.10;102077.88;5086980;28;20110;-76
2022/01/20 06:39:09;;;;;;;3.60;1.10;;;;;;;9.13;53.18;102077.88;5083351;28;20036;-76
2022/01/20 06:41:38;;;;;;;7.05;1.38;;;;;;;9.13;52.93;102082.41;5083481;28;20440;-76
2022/01/20 06:44:05;;;;;;;4.78;1.48;;;;;;;9.13;52.88;102090.53;5076039;28;20048;-76
2022/01/20 06:46:32;;;;;;;5.75;1.60;;;;;;;9.12;52.70;102096.91;5071122;28;20098;-77
2022/01/20 06:48:59;;;;;;;3.33;1.02;;;;;;;9.12;53.20;102100.50;5088599;28;20126;-76
2022/01/20 06:51:26;;;;;;;6.15;1.50;;;;;;;9.12;52.93;102099.59;5081826;28;20113;-77
2022/01/20 06:53:52;;;;;;;5.20;1.50;;;;;;;9.12;52.95;102103.19;5084337;28;20059;-76
2022/01/20 06:56:19;;;;;;;4.38;1.30;;;;;;;9.11;53.05;102112.28;5084965;28;20511;-76
2022/01/20 06:59:06;;;;;;;5.57;1.25;;;;;;;9.12;53.18;102118.56;5082148;28;20124;-76
2022/01/20 07:01:33;;;;;;;5.97;1.80;;;;;;;9.10;52.92;102124.06;5090117;28;20048;-76
2022/01/20 07:04:07;;;;;;;6.13;1.27;;;;;;;9.10;53.15;102131.28;5070120;28;20060;-77
2022/01/20 07:06:36;;;;;;;8.57;1.80;;;;;;;9.10;53.28;102125.88;5091399;28;20469;-76
2022/01/20 07:09:03;;;;;;;6.20;1.92;;;;;;;9.11;53.24;102142.06;5070284;28;20035;-76
2022/01/20 07:11:33;;;;;;;6.88;1.58;;;;;;;9.13;53.07;102136.59;5090900;28;20052;-76
2022/01/20 07:14:00;;;;;;;6.03;1.60;;;;;;;9.11;52.98;102142.06;5086974;28;20102;-76
2022/01/20 07:16:28;;;;;;;8.63;1.80;;;;;;;9.10;53.10;102151.13;5081292;28;20040;-76
2022/01/20 07:18:56;;;;;;;5.85;1.50;;;;;;;9.12;52.74;102161.94;5085914;28;20044;-76
2022/01/20 07:21:24;;;;;;;7.80;1.90;;;;;;;9.11;52.59;102161.03;5096013;28;20105;-76
2022/01/20 07:23:51;;;;;;;5.82;1.48;;;;;;;9.10;52.59;102172.81;5089201;28;20075;-76
2022/01/20 07:26:18;;;;;;;5.15;1.63;;;;;;;9.09;52.66;102179.16;5086022;28;20083;-76
2022/01/20 07:28:45;;;;;;;3.70;1.38;;;;;;;9.08;52.55;102185.53;5087995;28;20040;-75
2022/01/20 07:31:12;;;;;;;7.60;1.75;;;;;;;9.07;52.48;102191.88;5069174;28;20052;-76
2022/01/20 07:33:39;;;;;;;7.25;1.55;;;;;;;9.05;52.73;102182.97;5088954;28;20142;-76
2022/01/20 07:36:05;;;;;;;5.00;1.42;;;;;;;9.06;52.48;102186.53;5069986;28;20048;-76
2022/01/20 07:38:32;;;;;;;6.22;1.40;;;;;;;9.06;52.39;102183.81;5068119;28;20052;-76
2022/01/20 07:40:59;;;;;;;5.60;1.60;;;;;;;9.04;52.40;102186.63;5088298;28;20056;-76
2022/01/20 07:43:25;;;;;;;6.43;1.50;;;;;;;9.04;52.18;102207.41;5089232;28;20445;-76
2022/01/20 07:45:52;;;;;;;7.55;1.50;;;;;;;9.05;52.25;102201.03;5083923;28;20056;-76
2022/01/20 07:48:18;;;;;;;5.68;1.60;;;;;;;9.04;52.51;102205.56;5067689;28;20044;-76
2022/01/20 07:50:45;;;;;;;5.05;1.63;;;;;;;9.05;52.50;102209.16;5077858;28;20077;-75
2022/01/20 07:53:12;;;;;;;9.43;1.90;;;;;;;9.03;52.50;102211.03;5089146;28;20385;-76
2022/01/20 07:55:39;;;;;;;5.88;1.55;;;;;;;9.05;52.33;102209.16;5085856;28;20087;-76
2022/01/20 07:58:06;;;;;;;7.18;1.60;;;;;;;9.05;52.43;102220.00;5083394;28;20051;-76
2022/01/20 08:00:32;;;;;;;5.30;1.70;;;;;;;9.04;52.14;102220.94;5080565;28;20502;-76
2022/01/20 08:02:59;;;;;;;5.00;1.55;;;;;;;9.04;52.27;102229.97;5087701;28;20543;-76
2022/01/20 08:05:26;;;;;;;6.13;2.00;;;;;;;9.05;51.83;102215.47;5081750;28;20048;-75
2022/01/20 08:07:52;;;;;;;9.35;2.22;;;;;;;9.04;51.81;102232.66;5095153;28;20116;-75
2022/01/20 08:10:19;;;;;;;4.90;1.70;;;;;;;9.04;51.36;102223.66;5084344;28;20055;-76
2022/01/20 08:12:46;;;;;;;5.82;2.03;;;;;;;9.00;51.32;102219.28;5071895;28;20117;-76
2022/01/20 08:15:14;;;;;;;4.13;1.45;;;;;;;9.00;51.66;102225.59;5086357;28;20096;-76
2022/01/20 08:17:42;;;;;;;6.03;1.73;;;;;;;9.00;51.53;102232.81;5068394;28;20124;-76
2022/01/20 08:20:10;;;;;;;10.38;2.15;;;;;;;8.98;51.64;102226.56;5089719;28;20193;-76
2022/01/20 08:22:36;;;;;;;7.20;1.63;;;;;;;8.99;51.67;102228.34;5089019;28;20098;-76
2022/01/20 08:25:06;;;;;;;4.90;1.58;;;;;;;8.98;51.23;102232.88;5069252;28;20078;-76
2022/01/20 08:27:36;;;;;;;7.40;2.20;;;;;;;8.96;51.64;102242.91;5070493;28;20294;-76
2022/01/20 08:30:09;;;;;;;5.90;1.58;;;;;;;8.96;50.97;102242.91;5070998;28;20043;-76
2022/01/20 08:32:36;;;;;;;6.00;1.90;;;;;;;8.96;51.32;102250.16;5083711;28;20131;-75
2022/01/20 08:35:06;;;;;;;6.22;2.45;;;;;;;8.95;51.50;102254.69;5080860;28;20056;-76
2022/01/20 08:37:33;;;;;;;6.38;1.80;;;;;;;8.95;51.42;102243.84;5088728;28;20121;-76
2022/01/20 08:40:04;;;;;;;9.18;2.28;;;;;;;8.96;51.21;102252.84;5086922;28;20398;-76
2022/01/20 08:42:32;;;;;;;6.53;1.58;;;;;;;8.96;51.42;102264.59;5068031;28;20101;-76
2022/01/20 08:44:59;;;;;;;5.78;1.60;;;;;;;8.96;51.64;102269.13;5082496;28;20109;-76
2022/01/20 08:47:26;;;;;;;5.70;1.50;;;;;;;8.96;51.55;102263.69;5085272;28;20052;-75
2022/01/20 08:49:53;;;;;;;4.93;1.40;;;;;;;8.97;51.79;102265.47;5084716;28;20514;-76
2022/01/20 08:52:21;;;;;;;8.52;1.85;;;;;;;8.97;51.42;102263.66;5059696;28;20044;-75
2022/01/20 08:54:48;;;;;;;5.85;1.60;;;;;;;8.98;51.41;102261.78;5081922;28;20082;-75
2022/01/20 08:57:14;;;;;;;6.35;1.48;;;;;;;8.98;51.35;102264.50;5086154;28;20430;-74
2022/01/20 08:59:42;;;;;;;6.03;1.40;;;;;;;8.98;51.29;102264.50;5080984;28;20056;-77
2022/01/20 09:02:10;;;;;;;8.90;1.85;;;;;;;8.99;51.41;102272.56;5085660;28;20044;-75
2022/01/20 09:04:37;;;;;;;7.40;1.60;;;;;;;8.99;51.22;102266.28;5067872;28;20063;-75
2022/01/20 09:07:03;;;;;;;6.20;1.70;;;;;;;8.98;51.32;102273.50;5086633;28;20101;-77
2022/01/20 09:09:33;;;;;;;5.47;1.10;;;;;;;8.99;51.23;102288.81;5083487;28;20253;-77
2022/01/20 09:12:16;;;;;;;4.05;1.08;;;;;;;9.00;51.00;102289.72;5070881;28;20039;-77
2022/01/20 09:17:31;;;;;;;4.03;1.27;;;;;;;9.00;50.89;102289.72;5090382;28;20051;-77
2022/01/20 09:19:59;;;;;;;5.00;1.40;;;;;;;9.00;50.87;102290.59;5080967;28;20063;-77
2022/01/20 09:22:28;;;;;;;3.75;1.20;;;;;;;9.03;50.59;102297.72;5091030;28;20143;-78
2022/01/20 09:24:55;;;;;;;3.08;1.50;;;;;;;9.01;50.28;102299.59;5093272;28;20475;-78
2022/01/20 09:27:21;;;;;;;3.15;1.10;;;;;;;9.00;50.11;102298.72;5076885;28;20082;-78
2022/01/20 09:29:48;;;;;;;3.35;1.10;;;;;;;9.00;50.52;102304.13;5074671;28;20483;-75
2022/01/20 09:32:17;;;;;;;3.65;1.13;;;;;;;9.00;50.41;102304.13;5094291;28;20083;-76
2022/01/20 09:34:43;;;;;;;6.38;1.30;;;;;;;9.01;50.27;102300.50;5075194;28;20083;-78
2022/01/20 09:37:10;;;;;;;5.30;1.40;;;;;;;9.02;50.19;102302.25;5073186;28;20093;-77
2022/01/20 09:39:38;;;;;;;5.35;1.10;;;;;;;9.03;50.27;102305.88;5075416;28;20123;-77
2022/01/20 09:42:06;;;;;;;5.55;1.33;;;;;;;9.04;50.24;102307.63;5072064;28;20091;-75
2022/01/20 09:44:33;;;;;;;6.60;1.27;;;;;;;9.06;50.21;102311.16;5093953;28;20056;-82
2022/01/20 09:47:00;;;;;;;6.60;1.25;;;;;;;9.06;49.91;102321.97;5093482;28;20047;-79
2022/01/20 09:49:27;;;;;;;4.82;1.30;;;;;;;9.07;50.08;102323.75;5074393;28;20510;-82
2022/01/20 09:51:53;;;;;;;5.65;1.30;;;;;;;9.07;50.05;102330.06;5094774;28;20102;-82
2022/01/20 09:54:20;;;;;;;5.93;1.80;;;;;;;9.08;50.21;102337.25;5076092;28;20055;-78
2022/01/20 09:56:46;;;;;;;6.13;1.52;;;;;;;9.08;49.97;102349.91;5093860;28;20048;-82
2022/01/20 09:59:13;;;;;;;6.20;1.50;;;;;;;9.09;50.07;102341.72;5079301;28;20044;-77
2022/01/20 10:01:45;;;;;;;4.90;1.30;;;;;;;9.14;49.67;102355.13;5093248;28;20086;-78
2022/01/20 10:04:23;;;;;;;4.47;1.52;;;;;;;9.15;49.50;102355.03;5082043;28;20101;-80
2022/01/20 10:06:52;;;;;;;4.53;1.58;;;;;;;9.15;50.14;102351.44;5075265;28;20514;-78
2022/01/20 10:09:36;;;;;;;3.78;1.27;;;;;;;9.18;49.30;102359.47;5097913;28;20040;-78
2022/01/20 10:12:05;;;;;;;5.28;1.88;;;;;;;9.19;49.88;102354.94;5071964;28;20044;-77
2022/01/20 10:14:51;;;;;;;4.63;1.38;;;;;;;9.21;49.27;102364.78;5074565;28;20060;-76
2022/01/20 10:17:25;;;;;;;4.35;1.30;;;;;;;9.24;49.40;102355.63;5071141;28;20049;-76
2022/01/20 10:20:02;;;;;;;3.42;1.02;;;;;;;9.23;49.51;102367.41;5052901;28;20600;-76
2022/01/20 10:22:30;;;;;;;5.70;1.52;;;;;;;9.24;49.41;102369.19;5061869;28;20117;-75
2022/01/20 10:25:03;;;;;;;6.32;1.40;;;;;;;9.26;49.11;102361.91;5069108;28;20110;-76
2022/01/20 10:27:33;;;;;;;5.90;1.40;;;;;;;9.24;49.48;102364.66;5070907;28;20090;-76
2022/01/20 10:30:04;;;;;;;7.22;1.40;;;;;;;9.26;49.79;102368.19;5070094;28;20476;-76
2022/01/20 10:32:45;;;;;;;3.80;1.42;;;;;;;9.27;48.93;102371.81;5055424;28;20125;-75
2022/01/20 10:35:16;;;;;;;6.65;1.67;;;;;;;9.26;49.64;102378.16;5064601;28;20582;-75
2022/01/20 10:37:59;;;;;;;5.88;1.42;;;;;;;9.30;49.17;102393.38;5069668;28;20113;-76
2022/01/20 10:40:27;;;;;;;4.57;1.40;;;;;;;9.27;49.96;102388.94;5052949;28;20044;-76
2022/01/20 10:42:54;;;;;;;4.13;1.40;;;;;;;9.31;49.65;102397.81;5079467;28;20479;-75
2022/01/20 10:45:23;;;;;;;4.70;1.40;;;;;;;9.33;49.52;102393.25;5090909;28;20093;-75
2022/01/20 10:47:53;;;;;;;7.53;1.58;;;;;;;9.37;49.07;102400.34;5092874;28;20052;-76
2022/01/20 10:50:27;;;;;;;5.20;1.30;;;;;;;9.39;48.65;102407.44;5078459;28;20052;-75
2022/01/20 10:52:54;;;;;;;7.13;1.42;;;;;;;9.40;49.25;102397.50;5071597;28;20052;-75
2022/01/20 10:55:35;;;;;;;5.15;1.65;;;;;;;9.43;48.07;102408.22;5073076;28;20059;-75
2022/01/20 10:58:11;;;;;;;7.45;1.65;;;;;;;9.43;48.55;102398.28;5074736;28;20058;-76
2022/01/20 11:00:44;;;;;;;6.13;1.60;;;;;;;9.41;48.49;102404.69;5091473;28;20052;-75
2022/01/20 11:03:11;;;;;;;5.32;1.48;;;;;;;9.36;48.93;102399.44;5090233;28;20051;-75
2022/01/20 11:05:39;;;;;;;5.97;1.77;;;;;;;9.37;48.89;102409.34;5089866;28;20652;-75
2022/01/20 11:08:07;;;;;;;5.72;1.65;;;;;;;9.38;48.64;102399.41;5069940;28;20060;-75
2022/01/20 11:10:34;;;;;;;6.00;1.70;;;;;;;9.35;48.81;102394.97;5091863;28;20052;-75
2022/01/20 11:13:01;;;;;;;6.75;1.70;;;;;;;9.36;49.02;102390.44;5093445;28;20407;-75
2022/01/20 11:15:29;;;;;;;3.95;1.50;;;;;;;9.37;48.75;102392.19;5072710;28;20063;-75
2022/01/20 11:17:57;;;;;;;6.13;1.40;;;;;;;9.39;48.73;102390.28;5092096;28;20062;-75
2022/01/20 11:20:27;;;;;;;5.53;1.60;;;;;;;9.37;48.60;102389.50;5088451;28;20044;-75
2022/01/20 11:22:55;;;;;;;6.85;1.40;;;;;;;9.39;48.13;102379.44;5073618;28;20051;-75
2022/01/20 11:25:25;;;;;;;3.70;1.33;;;;;;;9.36;48.34;102385.91;5072761;28;20193;-75
2022/01/20 11:28:02;;;;;;;5.05;1.20;;;;;;;9.37;47.96;102371.41;5091578;28;20052;-75
2022/01/20 11:30:32;;;;;;;5.28;1.40;;;;;;;9.35;48.33;102369.69;5086966;28;20436;-75
2022/01/20 11:33:04;;;;;;;5.68;1.50;;;;;;;9.34;48.36;102370.63;5092278;28;20052;-75
2022/01/20 11:35:44;;;;;;;4.85;1.90;;;;;;;9.34;48.08;102378.75;5077385;28;20044;-75
2022/01/20 11:38:15;;;;;;;4.88;1.17;;;;;;;9.33;48.06;102372.44;5091695;28;20048;-75
2022/01/20 11:41:10;;;;;;;4.10;1.23;;;;;;;9.32;47.91;102372.50;5090878;28;20432;-75
2022/01/20 11:43:38;;;;;;;6.07;1.45;;;;;;;9.35;48.50;102372.41;5059310;28;20067;-74
2022/01/20 11:46:14;;;;;;;5.05;1.70;;;;;;;9.38;48.06;102365.03;5083477;28;20051;-75
2022/01/20 11:49:02;;;;;;;6.95;1.50;;;;;;;9.41;48.12;102364.03;5073446;28;20377;-76
2022/01/20 11:51:40;;;;;;;6.03;1.40;;;;;;;9.40;49.02;102365.84;5092719;28;20616;-75
2022/01/20 11:54:33;;;;;;;6.10;1.33;;;;;;;9.47;48.65;102375.50;5090149;28;20137;-76
2022/01/20 11:57:16;;;;;;;6.60;1.55;;;;;;;9.51;48.12;102379.00;5072806;28;20066;-75
2022/01/20 11:59:45;;;;;;;7.10;1.65;;;;;;;9.55;48.68;102369.81;5086399;28;20487;-76
2022/01/20 12:02:34;;;;;;;6.10;1.30;;;;;;;9.59;47.87;102376.88;5091112;28;20468;-75
2022/01/20 12:05:26;;;;;;;6.25;1.67;;;;;;;9.61;47.83;102361.44;5071287;28;20133;-75
2022/01/20 12:08:15;;;;;;;5.60;1.38;;;;;;;9.63;47.77;102362.28;5091557;28;20048;-76
2022/01/20 12:10:45;;;;;;;4.43;1.30;;;;;;;9.66;48.75;102354.00;5088144;28;20044;-74
2022/01/20 12:13:16;;;;;;;6.47;1.50;;;;;;;9.71;48.42;102359.25;5087124;28;20052;-75
2022/01/20 12:15:50;;;;;;;6.25;1.63;;;;;;;9.76;47.75;102352.69;5088327;28;20044;-76
2022/01/20 12:18:17;;;;;;;4.28;1.33;;;;;;;9.76;48.33;102351.81;5089247;28;20056;-76
2022/01/20 12:20:44;;;;;;;5.78;1.70;;;;;;;9.79;48.65;102349.00;5073012;28;20542;-76
2022/01/20 12:23:11;;;;;;;4.43;1.40;;;;;;;9.80;48.61;102350.78;5091707;28;20452;-76
2022/01/20 12:25:38;;;;;;;5.18;1.38;;;;;;;9.82;48.27;102338.88;5071495;28;20048;-75
2022/01/20 12:28:13;;;;;;;4.20;1.58;;;;;;;9.86;47.55;102339.66;5090401;28;20051;-75
2022/01/20 12:30:47;;;;;;;4.45;1.30;;;;;;;9.85;47.88;102343.31;5072479;28;20056;-75
2022/01/20 12:33:43;;;;;;;4.78;1.35;;;;;;;9.86;47.91;102345.97;5089452;28;20047;-75
2022/01/20 12:36:16;;;;;;;4.78;1.60;;;;;;;9.88;47.64;102349.47;5080113;28;20048;-75
2022/01/20 12:38:46;;;;;;;6.38;1.50;;;;;;;9.86;47.58;102359.53;5091332;28;20071;-76
2022/01/20 12:41:21;;;;;;;6.72;1.90;;;;;;;9.89;47.18;102350.38;5074213;28;20113;-76
2022/01/20 12:44:05;;;;;;;3.33;1.27;;;;;;;9.91;47.51;102351.19;5098020;28;20053;-76
2022/01/20 12:46:36;;;;;;;4.57;1.40;;;;;;;9.88;47.96;102343.22;5090199;28;20044;-77
2022/01/20 12:49:06;;;;;;;4.40;1.40;;;;;;;9.89;47.69;102339.53;5070666;28;20048;-76
2022/01/20 12:51:44;;;;;;;5.72;1.65;;;;;;;9.91;47.16;102324.97;5085527;28;20073;-78
2022/01/20 12:54:12;;;;;;;5.82;1.48;;;;;;;9.88;47.64;102318.78;5088160;28;20056;-77